KPNM

Princeton Municipal Airport

Princeton, Minnesota, USA
METAR KPNM 230516Z AUTO 27003KT 10SM CLR 01/M03 A3027 RMK AO2
Observed Flight Rules
Oct-23 @ 05:16 UTC (14 minutes ago) Visual Flight Rules
Wind Visibility Clouds
270° at 3 knots 10 miles
  • Clear skies
Temperatures Readings
Current 1°C / 34°F
Dewpoint -3°C / 27°F
Humidity 75%
Altimeter 30.27" Hg
Pressure 1025 hPa
Elevation 298
METAR KPNM 230516Z AUTO 27003KT 10SM CLR 01/M03 A3027 RMK AO2
Observed Flight Rules
Oct-23 @ 05:16 UTC
(14 minutes ago)
VFR
Wind Visibility
270° at 3 knots 10 miles
Clouds
  • Clear skies
Temperature Dewpoint
1°C / 34°F -3°C / 27°F
Humidity Altimeter Pressure
75% 30.27" Hg 1025 hPa